CCM62PM LFKJ-LFPO
Flight info
| Callsign | CCM62PM |
|---|---|
| Flight time | 1h 24m |
| Altitude | 34000 |
| Route | LONSU M622 PIGOS DCT BARSO DCT OKTET DCT GIPNO DCT BULOL DCT IDAVO DCT ARDOL |
| Aircraft | A320/M-SDE3FGHIRWY/LB1 |
Departure
| Time | 2026-04-12 10:19 |
|---|---|
| Airport | Ajaccio Napoléon Bonaparte airport (LFKJ) |
Arrival
| Time | 2026-04-12 11:44 |
|---|---|
| Airport | Paris-Orly Airport (LFPO) |
| Time | Latitude | Longitude | Altitude | Speed | Heading |
|---|---|---|---|---|---|
| 2026-04-12 10:00 | 41.91901 | 8.79542 | 26 ft | 0 kts | 345° |
| 2026-04-12 10:13 | 41.91905 | 8.79548 | 26 ft | 1 kts | 44° |
| 2026-04-12 10:13 | 41.91899 | 8.79580 | 30 ft | 8 kts | 92° |
| 2026-04-12 10:13 | 41.91959 | 8.79646 | 28 ft | 16 kts | 24° |
| 2026-04-12 10:13 | 41.92078 | 8.79720 | 29 ft | 20 kts | 25° |
| 2026-04-12 10:14 | 41.92214 | 8.79805 | 26 ft | 23 kts | 25° |
| 2026-04-12 10:14 | 41.92362 | 8.79897 | 30 ft | 25 kts | 25° |
| 2026-04-12 10:14 | 41.92523 | 8.79996 | 28 ft | 26 kts | 25° |
| 2026-04-12 10:14 | 41.92695 | 8.80103 | 27 ft | 28 kts | 25° |
| 2026-04-12 10:15 | 41.92853 | 8.80261 | 27 ft | 29 kts | 46° |
| 2026-04-12 10:15 | 41.92959 | 8.80418 | 31 ft | 16 kts | 66° |
| 2026-04-12 10:15 | 41.92962 | 8.80462 | 31 ft | 0 kts | 98° |
| 2026-04-12 10:16 | 41.92962 | 8.80468 | 31 ft | 3 kts | 98° |
| 2026-04-12 10:17 | 41.92947 | 8.80524 | 32 ft | 10 kts | 115° |
| 2026-04-12 10:17 | 41.92899 | 8.80561 | 31 ft | 8 kts | 199° |
| 2026-04-12 10:17 | 41.92866 | 8.80542 | 31 ft | 0 kts | 205° |
| 2026-04-12 10:18 | 41.92613 | 8.80384 | 27 ft | 81 kts | 205° |
| 2026-04-12 10:18 | 41.91880 | 8.79927 | 22 ft | 144 kts | 205° |
| 2026-04-12 10:19 | 41.90998 | 8.79375 | 575 ft | 140 kts | 209° |
| 2026-04-12 10:19 | 41.90299 | 8.78378 | 1033 ft | 149 kts | 244° |
| 2026-04-12 10:19 | 41.89814 | 8.77145 | 1584 ft | 150 kts | 240° |
| 2026-04-12 10:19 | 41.89272 | 8.75894 | 1952 ft | 166 kts | 237° |
| 2026-04-12 10:20 | 41.88631 | 8.74448 | 2166 ft | 196 kts | 238° |
| 2026-04-12 10:20 | 41.87887 | 8.72777 | 2526 ft | 221 kts | 237° |
| 2026-04-12 10:20 | 41.87057 | 8.70914 | 3000 ft | 245 kts | 238° |
| 2026-04-12 10:20 | 41.86139 | 8.68858 | 3564 ft | 266 kts | 237° |
| 2026-04-12 10:21 | 41.85174 | 8.66698 | 4465 ft | 272 kts | 237° |
| 2026-04-12 10:21 | 41.84323 | 8.64416 | 5422 ft | 278 kts | 252° |
| 2026-04-12 10:21 | 41.84159 | 8.61815 | 6385 ft | 285 kts | 277° |
| 2026-04-12 10:21 | 41.84819 | 8.59310 | 7302 ft | 290 kts | 302° |
| 2026-04-12 10:22 | 41.86222 | 8.57374 | 8210 ft | 293 kts | 328° |
| 2026-04-12 10:22 | 41.88061 | 8.56175 | 9149 ft | 296 kts | 336° |
| 2026-04-12 10:22 | 41.89957 | 8.55066 | 10052 ft | 299 kts | 337° |
| 2026-04-12 10:22 | 41.91938 | 8.53913 | 10437 ft | 322 kts | 336° |
| 2026-04-12 10:23 | 41.94042 | 8.52680 | 10955 ft | 336 kts | 336° |
| 2026-04-12 10:23 | 41.96204 | 8.51405 | 11711 ft | 342 kts | 336° |
| 2026-04-12 10:23 | 41.98394 | 8.50108 | 12510 ft | 346 kts | 336° |
| 2026-04-12 10:23 | 42.00605 | 8.48796 | 13304 ft | 350 kts | 336° |
| 2026-04-12 10:24 | 42.02851 | 8.47464 | 14045 ft | 354 kts | 336° |
| 2026-04-12 10:24 | 42.05116 | 8.46120 | 14738 ft | 358 kts | 335° |
| 2026-04-12 10:24 | 42.07409 | 8.44756 | 15436 ft | 362 kts | 335° |
| 2026-04-12 10:24 | 42.09724 | 8.43374 | 16122 ft | 366 kts | 335° |
| 2026-04-12 10:25 | 42.12061 | 8.41974 | 16797 ft | 370 kts | 335° |
| 2026-04-12 10:25 | 42.14427 | 8.40558 | 17489 ft | 373 kts | 335° |
| 2026-04-12 10:25 | 42.16810 | 8.39135 | 18159 ft | 377 kts | 335° |
| 2026-04-12 10:25 | 42.19223 | 8.37693 | 18751 ft | 381 kts | 334° |
| 2026-04-12 10:26 | 42.21652 | 8.36243 | 19346 ft | 384 kts | 334° |
| 2026-04-12 10:26 | 42.24105 | 8.34778 | 19950 ft | 387 kts | 334° |
| 2026-04-12 10:26 | 42.26574 | 8.33300 | 20558 ft | 390 kts | 334° |
| 2026-04-12 10:26 | 42.29095 | 8.31792 | 21161 ft | 393 kts | 334° |
| 2026-04-12 10:27 | 42.31604 | 8.30291 | 21752 ft | 396 kts | 333° |
| 2026-04-12 10:27 | 42.34132 | 8.28774 | 22341 ft | 399 kts | 333° |
| 2026-04-12 10:27 | 42.36680 | 8.27240 | 22932 ft | 402 kts | 333° |
| 2026-04-12 10:27 | 42.39248 | 8.25692 | 23498 ft | 406 kts | 333° |
| 2026-04-12 10:28 | 42.41839 | 8.24131 | 23973 ft | 409 kts | 333° |
| 2026-04-12 10:28 | 42.44452 | 8.22561 | 24442 ft | 412 kts | 333° |
| 2026-04-12 10:28 | 42.47074 | 8.20983 | 24916 ft | 414 kts | 333° |
| 2026-04-12 10:28 | 42.49720 | 8.19389 | 25367 ft | 417 kts | 333° |
| 2026-04-12 10:29 | 42.52380 | 8.17783 | 25804 ft | 420 kts | 333° |
| 2026-04-12 10:29 | 42.55053 | 8.16163 | 26249 ft | 422 kts | 333° |
| 2026-04-12 10:29 | 42.57744 | 8.14529 | 26681 ft | 425 kts | 333° |
| 2026-04-12 10:29 | 42.60449 | 8.12887 | 27100 ft | 427 kts | 333° |
| 2026-04-12 10:30 | 42.63170 | 8.11235 | 27512 ft | 430 kts | 333° |
| 2026-04-12 10:30 | 42.65907 | 8.09569 | 27919 ft | 432 kts | 333° |
| 2026-04-12 10:30 | 42.68658 | 8.07893 | 28323 ft | 435 kts | 333° |
| 2026-04-12 10:30 | 42.71429 | 8.06205 | 28721 ft | 437 kts | 333° |
| 2026-04-12 10:31 | 42.74244 | 8.04488 | 29109 ft | 440 kts | 333° |
| 2026-04-12 10:31 | 42.77044 | 8.02778 | 29478 ft | 442 kts | 332° |
| 2026-04-12 10:31 | 42.79823 | 8.00966 | 29853 ft | 443 kts | 329° |
| 2026-04-12 10:31 | 42.82550 | 7.99000 | 30180 ft | 444 kts | 328° |
| 2026-04-12 10:32 | 42.85244 | 7.96921 | 30474 ft | 446 kts | 327° |
| 2026-04-12 10:32 | 42.87933 | 7.94788 | 30766 ft | 448 kts | 326° |
| 2026-04-12 10:32 | 42.90633 | 7.92640 | 31048 ft | 451 kts | 327° |
| 2026-04-12 10:32 | 42.93358 | 7.90500 | 31318 ft | 453 kts | 327° |
| 2026-04-12 10:33 | 42.96110 | 7.88373 | 31587 ft | 455 kts | 327° |
| 2026-04-12 10:33 | 42.98873 | 7.86266 | 31962 ft | 455 kts | 328° |
| 2026-04-12 10:33 | 43.01636 | 7.84171 | 32331 ft | 454 kts | 328° |
| 2026-04-12 10:33 | 43.04398 | 7.82078 | 32702 ft | 454 kts | 328° |
| 2026-04-12 10:34 | 43.07156 | 7.79981 | 33066 ft | 454 kts | 328° |
| 2026-04-12 10:34 | 43.09917 | 7.77873 | 33430 ft | 454 kts | 328° |
| 2026-04-12 10:34 | 43.12625 | 7.75789 | 33783 ft | 454 kts | 328° |
| 2026-04-12 10:35 | 43.18105 | 7.71543 | 33893 ft | 440 kts | 327° |
| 2026-04-12 10:35 | 43.23390 | 7.67442 | 33902 ft | 435 kts | 327° |
| 2026-04-12 10:36 | 43.28653 | 7.63344 | 33892 ft | 435 kts | 327° |
| 2026-04-12 10:36 | 43.33916 | 7.59253 | 33900 ft | 435 kts | 327° |
| 2026-04-12 10:37 | 43.39181 | 7.55153 | 33897 ft | 435 kts | 327° |
| 2026-04-12 10:37 | 43.44392 | 7.51086 | 33904 ft | 435 kts | 327° |
| 2026-04-12 10:38 | 43.49656 | 7.46980 | 33922 ft | 435 kts | 327° |
| 2026-04-12 10:38 | 43.54957 | 7.42835 | 33922 ft | 435 kts | 327° |
| 2026-04-12 10:39 | 43.59843 | 7.38999 | 33919 ft | 435 kts | 327° |
| 2026-04-12 10:39 | 43.64830 | 7.34940 | 33911 ft | 434 kts | 324° |
| 2026-04-12 10:40 | 43.69619 | 7.30557 | 33929 ft | 433 kts | 322° |
| 2026-04-12 10:40 | 43.74587 | 7.25851 | 33923 ft | 433 kts | 322° |
| 2026-04-12 10:41 | 43.79316 | 7.21442 | 33918 ft | 433 kts | 323° |
| 2026-04-12 10:41 | 43.84346 | 7.16825 | 33935 ft | 433 kts | 323° |
| 2026-04-12 10:42 | 43.89409 | 7.12188 | 33925 ft | 433 kts | 323° |
| 2026-04-12 10:42 | 43.94428 | 7.07563 | 33942 ft | 433 kts | 323° |
| 2026-04-12 10:43 | 44.01943 | 7.00604 | 33957 ft | 433 kts | 322° |
| 2026-04-12 10:43 | 44.06950 | 6.95943 | 33957 ft | 433 kts | 322° |
| 2026-04-12 10:44 | 44.11950 | 6.91278 | 33963 ft | 433 kts | 322° |
| 2026-04-12 10:44 | 44.16949 | 6.86618 | 33965 ft | 432 kts | 322° |
| 2026-04-12 10:45 | 44.21944 | 6.81951 | 33960 ft | 432 kts | 322° |
| 2026-04-12 10:45 | 44.26126 | 6.78043 | 33951 ft | 432 kts | 322° |
| 2026-04-12 10:46 | 44.31068 | 6.73397 | 33955 ft | 432 kts | 322° |
| 2026-04-12 10:46 | 44.36096 | 6.68666 | 33951 ft | 432 kts | 322° |
| 2026-04-12 10:47 | 44.41020 | 6.64028 | 33942 ft | 432 kts | 322° |
| 2026-04-12 10:47 | 44.46006 | 6.59314 | 33936 ft | 432 kts | 322° |
| 2026-04-12 10:48 | 44.50981 | 6.54602 | 33930 ft | 432 kts | 322° |
| 2026-04-12 10:48 | 44.55959 | 6.49895 | 33929 ft | 431 kts | 322° |
| 2026-04-12 10:49 | 44.60924 | 6.45187 | 33926 ft | 431 kts | 322° |
| 2026-04-12 10:49 | 44.65898 | 6.40454 | 33932 ft | 430 kts | 322° |
| 2026-04-12 10:50 | 44.70855 | 6.35721 | 33930 ft | 430 kts | 322° |
| 2026-04-12 10:50 | 44.75798 | 6.30986 | 33936 ft | 430 kts | 322° |
| 2026-04-12 10:51 | 44.80737 | 6.26254 | 33932 ft | 429 kts | 322° |
| 2026-04-12 10:51 | 44.85671 | 6.21507 | 33939 ft | 429 kts | 321° |
| 2026-04-12 10:52 | 44.90602 | 6.16768 | 33936 ft | 429 kts | 321° |
| 2026-04-12 10:52 | 44.95539 | 6.12025 | 33940 ft | 429 kts | 321° |
| 2026-04-12 10:53 | 45.00468 | 6.07272 | 33950 ft | 429 kts | 321° |
| 2026-04-12 10:53 | 45.05296 | 6.02589 | 33954 ft | 428 kts | 321° |
| 2026-04-12 10:54 | 45.10239 | 5.97797 | 33952 ft | 428 kts | 321° |
| 2026-04-12 10:54 | 45.15171 | 5.93003 | 33974 ft | 430 kts | 321° |
| 2026-04-12 10:55 | 45.20092 | 5.88205 | 33980 ft | 430 kts | 321° |
| 2026-04-12 10:55 | 45.25011 | 5.83406 | 33998 ft | 429 kts | 321° |
| 2026-04-12 10:56 | 45.29938 | 5.78595 | 34011 ft | 429 kts | 321° |
| 2026-04-12 10:56 | 45.34849 | 5.73784 | 34022 ft | 428 kts | 321° |
| 2026-04-12 10:57 | 45.39746 | 5.68966 | 34035 ft | 428 kts | 321° |
| 2026-04-12 10:57 | 45.44645 | 5.64137 | 34040 ft | 428 kts | 321° |
| 2026-04-12 10:58 | 45.49534 | 5.59310 | 34045 ft | 428 kts | 321° |
| 2026-04-12 10:58 | 45.54458 | 5.54444 | 34050 ft | 428 kts | 320° |
| 2026-04-12 10:59 | 45.57718 | 5.51265 | 34043 ft | 429 kts | 322° |
| 2026-04-12 11:00 | 45.62301 | 5.47310 | 34042 ft | 430 kts | 324° |
| 2026-04-12 11:00 | 45.67393 | 5.42837 | 34059 ft | 429 kts | 323° |
| 2026-04-12 11:01 | 45.72432 | 5.38268 | 34055 ft | 429 kts | 323° |
| 2026-04-12 11:01 | 45.77502 | 5.33671 | 34072 ft | 429 kts | 323° |
| 2026-04-12 11:02 | 45.82501 | 5.29171 | 34075 ft | 429 kts | 323° |
| 2026-04-12 11:02 | 45.87562 | 5.24615 | 34078 ft | 430 kts | 323° |
| 2026-04-12 11:03 | 45.92626 | 5.20038 | 34078 ft | 430 kts | 323° |
| 2026-04-12 11:03 | 45.97682 | 5.15457 | 34071 ft | 430 kts | 323° |
| 2026-04-12 11:04 | 46.02743 | 5.10858 | 34078 ft | 430 kts | 323° |
| 2026-04-12 11:04 | 46.08149 | 5.06932 | 34070 ft | 435 kts | 332° |
| 2026-04-12 11:05 | 46.13703 | 5.03412 | 34073 ft | 435 kts | 332° |
| 2026-04-12 11:05 | 46.19241 | 4.99875 | 34068 ft | 436 kts | 331° |
| 2026-04-12 11:06 | 46.24783 | 4.96328 | 34074 ft | 436 kts | 331° |
| 2026-04-12 11:06 | 46.30324 | 4.92786 | 34081 ft | 436 kts | 331° |
| 2026-04-12 11:07 | 46.35905 | 4.89197 | 34082 ft | 436 kts | 331° |
| 2026-04-12 11:07 | 46.41442 | 4.85621 | 34085 ft | 436 kts | 331° |
| 2026-04-12 11:08 | 46.46978 | 4.82037 | 34087 ft | 436 kts | 331° |
| 2026-04-12 11:08 | 46.52528 | 4.78450 | 34087 ft | 437 kts | 331° |
| 2026-04-12 11:09 | 46.58076 | 4.74857 | 34087 ft | 437 kts | 330° |
| 2026-04-12 11:09 | 46.63634 | 4.71256 | 34090 ft | 437 kts | 330° |
| 2026-04-12 11:10 | 46.69193 | 4.67639 | 34098 ft | 438 kts | 330° |
| 2026-04-12 11:10 | 46.74791 | 4.63983 | 34096 ft | 438 kts | 330° |
| 2026-04-12 11:11 | 46.80360 | 4.60371 | 34098 ft | 438 kts | 330° |
| 2026-04-12 11:11 | 46.85942 | 4.56780 | 34095 ft | 438 kts | 330° |
| 2026-04-12 11:12 | 46.91522 | 4.53176 | 34101 ft | 438 kts | 330° |
| 2026-04-12 11:12 | 46.97092 | 4.49552 | 34097 ft | 438 kts | 330° |
| 2026-04-12 11:13 | 47.02659 | 4.45913 | 34094 ft | 439 kts | 330° |
| 2026-04-12 11:13 | 47.08240 | 4.42267 | 34096 ft | 439 kts | 330° |
| 2026-04-12 11:14 | 47.11041 | 4.40436 | 33860 ft | 440 kts | 330° |
| 2026-04-12 11:14 | 47.12924 | 4.39206 | 33684 ft | 438 kts | 330° |
| 2026-04-12 11:14 | 47.15702 | 4.37393 | 33416 ft | 435 kts | 330° |
| 2026-04-12 11:14 | 47.18457 | 4.35594 | 33131 ft | 431 kts | 330° |
| 2026-04-12 11:15 | 47.21186 | 4.33806 | 32627 ft | 428 kts | 330° |
| 2026-04-12 11:15 | 47.23891 | 4.32026 | 32105 ft | 425 kts | 329° |
| 2026-04-12 11:15 | 47.26579 | 4.30251 | 31601 ft | 422 kts | 329° |
| 2026-04-12 11:15 | 47.29250 | 4.28487 | 31101 ft | 419 kts | 329° |
| 2026-04-12 11:16 | 47.31894 | 4.26740 | 30612 ft | 415 kts | 329° |
| 2026-04-12 11:16 | 47.34553 | 4.24984 | 30117 ft | 412 kts | 329° |
| 2026-04-12 11:16 | 47.37158 | 4.23262 | 29605 ft | 407 kts | 329° |
| 2026-04-12 11:16 | 47.39727 | 4.21563 | 29153 ft | 402 kts | 329° |
| 2026-04-12 11:17 | 47.42265 | 4.19883 | 28716 ft | 397 kts | 328° |
| 2026-04-12 11:17 | 47.44775 | 4.18218 | 28283 ft | 393 kts | 328° |
| 2026-04-12 11:17 | 47.47256 | 4.16567 | 27819 ft | 390 kts | 328° |
| 2026-04-12 11:17 | 47.49733 | 4.14916 | 27294 ft | 389 kts | 328° |
| 2026-04-12 11:18 | 47.52199 | 4.13273 | 26792 ft | 388 kts | 328° |
| 2026-04-12 11:18 | 47.54657 | 4.11637 | 26284 ft | 387 kts | 328° |
| 2026-04-12 11:18 | 47.57141 | 4.09981 | 25770 ft | 386 kts | 328° |
| 2026-04-12 11:18 | 47.59578 | 4.08353 | 25267 ft | 385 kts | 328° |
| 2026-04-12 11:19 | 47.62016 | 4.06723 | 24771 ft | 384 kts | 329° |
| 2026-04-12 11:19 | 47.64449 | 4.05095 | 24267 ft | 383 kts | 329° |
| 2026-04-12 11:19 | 47.66877 | 4.03467 | 23769 ft | 382 kts | 329° |
| 2026-04-12 11:19 | 47.69286 | 4.01848 | 23214 ft | 382 kts | 329° |
| 2026-04-12 11:20 | 47.71692 | 4.00230 | 22718 ft | 379 kts | 329° |
| 2026-04-12 11:20 | 47.74090 | 3.98619 | 22225 ft | 376 kts | 329° |
| 2026-04-12 11:20 | 47.76469 | 3.97019 | 21733 ft | 374 kts | 328° |
| 2026-04-12 11:20 | 47.78704 | 3.95064 | 21246 ft | 363 kts | 316° |
| 2026-04-12 11:21 | 47.80543 | 3.92581 | 20780 ft | 352 kts | 304° |
| 2026-04-12 11:21 | 47.81992 | 3.89706 | 20331 ft | 344 kts | 297° |
| 2026-04-12 11:21 | 47.83313 | 3.86751 | 19882 ft | 342 kts | 297° |
| 2026-04-12 11:21 | 47.84623 | 3.83805 | 19433 ft | 340 kts | 297° |
| 2026-04-12 11:22 | 47.85928 | 3.80867 | 18990 ft | 339 kts | 297° |
| 2026-04-12 11:22 | 47.87224 | 3.77948 | 18551 ft | 338 kts | 297° |
| 2026-04-12 11:22 | 47.88517 | 3.75032 | 18075 ft | 337 kts | 297° |
| 2026-04-12 11:22 | 47.89801 | 3.72137 | 17629 ft | 334 kts | 297° |
| 2026-04-12 11:23 | 47.91085 | 3.69246 | 17188 ft | 332 kts | 297° |
| 2026-04-12 11:23 | 47.92351 | 3.66394 | 16756 ft | 330 kts | 297° |
| 2026-04-12 11:23 | 47.93613 | 3.63545 | 16325 ft | 328 kts | 297° |
| 2026-04-12 11:23 | 47.94864 | 3.60711 | 15901 ft | 326 kts | 297° |
| 2026-04-12 11:24 | 47.96111 | 3.57890 | 15473 ft | 325 kts | 298° |
| 2026-04-12 11:24 | 47.97570 | 3.55296 | 15142 ft | 327 kts | 309° |
| 2026-04-12 11:24 | 47.99153 | 3.52929 | 15007 ft | 317 kts | 309° |
| 2026-04-12 11:24 | 48.00689 | 3.50604 | 14717 ft | 313 kts | 308° |
| 2026-04-12 11:25 | 48.02201 | 3.48292 | 14380 ft | 311 kts | 308° |
| 2026-04-12 11:25 | 48.03707 | 3.45981 | 14036 ft | 309 kts | 308° |
| 2026-04-12 11:25 | 48.05202 | 3.43687 | 13666 ft | 308 kts | 308° |
| 2026-04-12 11:25 | 48.06695 | 3.41393 | 13284 ft | 307 kts | 308° |
| 2026-04-12 11:26 | 48.08181 | 3.39116 | 12903 ft | 305 kts | 308° |
| 2026-04-12 11:26 | 48.09659 | 3.36854 | 12514 ft | 303 kts | 309° |
| 2026-04-12 11:26 | 48.11105 | 3.34640 | 12147 ft | 302 kts | 309° |
| 2026-04-12 11:26 | 48.12556 | 3.32416 | 11520 ft | 298 kts | 308° |
| 2026-04-12 11:27 | 48.13999 | 3.30199 | 10844 ft | 296 kts | 308° |
| 2026-04-12 11:27 | 48.15422 | 3.28008 | 10250 ft | 291 kts | 309° |
| 2026-04-12 11:27 | 48.16849 | 3.25808 | 9835 ft | 291 kts | 309° |
| 2026-04-12 11:27 | 48.18258 | 3.23639 | 9436 ft | 289 kts | 309° |
| 2026-04-12 11:28 | 48.19654 | 3.21488 | 9055 ft | 287 kts | 309° |
| 2026-04-12 11:28 | 48.21039 | 3.19350 | 8683 ft | 285 kts | 309° |
| 2026-04-12 11:28 | 48.22406 | 3.17242 | 8311 ft | 283 kts | 309° |
| 2026-04-12 11:28 | 48.23775 | 3.15133 | 7945 ft | 281 kts | 310° |
| 2026-04-12 11:29 | 48.25137 | 3.13036 | 7578 ft | 280 kts | 310° |
| 2026-04-12 11:29 | 48.26486 | 3.10962 | 7305 ft | 274 kts | 310° |
| 2026-04-12 11:29 | 48.27787 | 3.08965 | 7183 ft | 261 kts | 310° |
| 2026-04-12 11:29 | 48.29042 | 3.07033 | 7115 ft | 256 kts | 310° |
| 2026-04-12 11:30 | 48.30284 | 3.05115 | 6960 ft | 258 kts | 310° |
| 2026-04-12 11:30 | 48.31520 | 3.03203 | 6669 ft | 254 kts | 310° |
| 2026-04-12 11:30 | 48.32762 | 3.01278 | 6418 ft | 252 kts | 310° |
| 2026-04-12 11:30 | 48.33982 | 2.99389 | 6178 ft | 251 kts | 310° |
| 2026-04-12 11:31 | 48.35194 | 2.97509 | 5947 ft | 250 kts | 310° |
| 2026-04-12 11:31 | 48.36399 | 2.95639 | 5725 ft | 248 kts | 310° |
| 2026-04-12 11:31 | 48.37598 | 2.93773 | 5504 ft | 247 kts | 310° |
| 2026-04-12 11:31 | 48.38788 | 2.91918 | 5268 ft | 246 kts | 310° |
| 2026-04-12 11:32 | 48.39973 | 2.90069 | 5059 ft | 244 kts | 310° |
| 2026-04-12 11:32 | 48.41154 | 2.88233 | 4832 ft | 243 kts | 310° |
| 2026-04-12 11:32 | 48.42335 | 2.86400 | 4607 ft | 242 kts | 310° |
| 2026-04-12 11:32 | 48.43508 | 2.84575 | 4388 ft | 241 kts | 310° |
| 2026-04-12 11:33 | 48.44761 | 2.82897 | 4169 ft | 243 kts | 323° |
| 2026-04-12 11:33 | 48.46313 | 2.81873 | 3972 ft | 246 kts | 343° |
| 2026-04-12 11:33 | 48.48030 | 2.81678 | 3914 ft | 251 kts | 2° |
| 2026-04-12 11:33 | 48.49795 | 2.81942 | 3861 ft | 251 kts | 3° |
| 2026-04-12 11:34 | 48.51506 | 2.82197 | 3805 ft | 251 kts | 2° |
| 2026-04-12 11:34 | 48.53241 | 2.82452 | 3746 ft | 250 kts | 3° |
| 2026-04-12 11:34 | 48.55002 | 2.82707 | 3689 ft | 251 kts | 2° |
| 2026-04-12 11:34 | 48.56739 | 2.82955 | 3636 ft | 250 kts | 2° |
| 2026-04-12 11:35 | 48.58469 | 2.83201 | 3580 ft | 250 kts | 2° |
| 2026-04-12 11:35 | 48.60193 | 2.83148 | 3521 ft | 247 kts | 352° |
| 2026-04-12 11:35 | 48.61792 | 2.82934 | 3442 ft | 247 kts | 352° |
| 2026-04-12 11:35 | 48.63500 | 2.82712 | 3387 ft | 247 kts | 352° |
| 2026-04-12 11:36 | 48.65210 | 2.82491 | 3333 ft | 246 kts | 352° |
| 2026-04-12 11:36 | 48.65330 | 2.82475 | 3328 ft | 246 kts | 352° |
| 2026-04-12 11:36 | 48.67236 | 2.82226 | 3265 ft | 245 kts | 352° |
| 2026-04-12 11:36 | 48.68969 | 2.82000 | 3156 ft | 246 kts | 353° |
| 2026-04-12 11:37 | 48.70680 | 2.81887 | 3043 ft | 247 kts | 356° |
| 2026-04-12 11:37 | 48.72394 | 2.81878 | 3006 ft | 246 kts | 358° |
| 2026-04-12 11:37 | 48.74122 | 2.81833 | 3012 ft | 255 kts | 350° |
| 2026-04-12 11:37 | 48.75761 | 2.81126 | 3006 ft | 235 kts | 330° |
| 2026-04-12 11:38 | 48.77076 | 2.79775 | 3014 ft | 226 kts | 313° |
| 2026-04-12 11:38 | 48.77760 | 2.78595 | 3010 ft | 223 kts | 301° |
| 2026-04-12 11:38 | 48.78458 | 2.76526 | 3012 ft | 219 kts | 284° |
| 2026-04-12 11:38 | 48.78722 | 2.74269 | 3011 ft | 217 kts | 268° |
| 2026-04-12 11:39 | 48.78579 | 2.72237 | 3009 ft | 215 kts | 255° |
| 2026-04-12 11:39 | 48.78190 | 2.70035 | 3009 ft | 216 kts | 253° |
| 2026-04-12 11:39 | 48.77785 | 2.67836 | 3011 ft | 216 kts | 253° |
| 2026-04-12 11:39 | 48.77382 | 2.65621 | 3014 ft | 216 kts | 253° |
| 2026-04-12 11:40 | 48.76981 | 2.63417 | 3013 ft | 216 kts | 253° |
| 2026-04-12 11:40 | 48.76584 | 2.61227 | 3007 ft | 215 kts | 253° |
| 2026-04-12 11:40 | 48.76186 | 2.59037 | 2952 ft | 217 kts | 253° |
| 2026-04-12 11:40 | 48.75785 | 2.56840 | 2681 ft | 215 kts | 253° |
| 2026-04-12 11:41 | 48.75396 | 2.54672 | 2437 ft | 211 kts | 253° |
| 2026-04-12 11:41 | 48.75005 | 2.52527 | 2143 ft | 203 kts | 253° |
| 2026-04-12 11:41 | 48.74635 | 2.50556 | 1790 ft | 185 kts | 252° |
| 2026-04-12 11:41 | 48.74319 | 2.48908 | 1589 ft | 165 kts | 252° |
| 2026-04-12 11:42 | 48.74044 | 2.47301 | 1415 ft | 145 kts | 252° |
| 2026-04-12 11:42 | 48.73786 | 2.45894 | 1171 ft | 135 kts | 250° |
| 2026-04-12 11:42 | 48.73545 | 2.44572 | 979 ft | 129 kts | 251° |
| 2026-04-12 11:43 | 48.73072 | 2.41982 | 650 ft | 126 kts | 250° |
| 2026-04-12 11:43 | 48.72837 | 2.40710 | 456 ft | 125 kts | 252° |
| 2026-04-12 11:43 | 48.72603 | 2.39436 | 314 ft | 125 kts | 251° |
| 2026-04-12 11:43 | 48.72395 | 2.38320 | 292 ft | 87 kts | 254° |
| 2026-04-12 11:44 | 48.72277 | 2.37679 | 290 ft | 45 kts | 255° |
| 2026-04-12 11:44 | 48.72198 | 2.37247 | 294 ft | 41 kts | 255° |
| 2026-04-12 11:44 | 48.72177 | 2.36849 | 292 ft | 36 kts | 274° |
| 2026-04-12 11:44 | 48.72198 | 2.36545 | 293 ft | 20 kts | 287° |
| 2026-04-12 11:45 | 48.72271 | 2.36349 | 295 ft | 20 kts | 313° |
| 2026-04-12 11:45 | 48.72322 | 2.36292 | 293 ft | 7 kts | 336° |
| 2026-04-12 11:45 | 48.72371 | 2.36270 | 293 ft | 7 kts | 344° |
| 2026-04-12 11:45 | 48.72416 | 2.36250 | 295 ft | 7 kts | 344° |
| 2026-04-12 11:46 | 48.72469 | 2.36224 | 294 ft | 8 kts | 333° |
| 2026-04-12 11:46 | 48.72488 | 2.36129 | 294 ft | 12 kts | 256° |
| 2026-04-12 11:46 | 48.72466 | 2.35993 | 291 ft | 14 kts | 264° |
| 2026-04-12 11:46 | 48.72476 | 2.35841 | 296 ft | 16 kts | 276° |
| 2026-04-12 11:47 | 48.72513 | 2.35705 | 293 ft | 15 kts | 335° |
| 2026-04-12 11:47 | 48.72606 | 2.35663 | 293 ft | 9 kts | 345° |
| 2026-04-12 11:47 | 48.72641 | 2.35703 | 291 ft | 7 kts | 64° |
| 2026-04-12 11:47 | 48.72657 | 2.35754 | 294 ft | 3 kts | 65° |
| 2026-04-12 11:48 | 48.72663 | 2.35773 | 295 ft | 1 kts | 65° |
| 2026-04-12 11:48 | 48.72664 | 2.35775 | 295 ft | 0 kts | 65° |